Time,TemperatureF,DewpointF,PressureIn,WindDirection,WindDirectionDegrees,WindSpeedMPH,WindSpeedGustMPH,Humidity,HourlyPrecipIn,Conditions,Clouds,dailyrainin,SoftwareType,DateUTC
2013-03-05 00:01:00,69.0,51.0,29.66,South,190,1.0,11.0,53,0.00,,,0.00,,2013-03-05 06:01:00,
2013-03-05 00:11:00,69.0,51.0,29.66,South,190,1.0,11.0,53,0.00,,,0.00,,2013-03-05 06:11:00,
2013-03-05 00:22:00,69.0,52.0,29.66,South,190,0.0,4.0,54,0.00,,,0.00,,2013-03-05 06:22:00,
2013-03-05 00:32:00,68.0,52.0,29.67,South,190,6.0,11.0,57,0.00,,,0.00,,2013-03-05 06:32:00,
2013-03-05 00:41:00,68.0,52.0,29.67,South,190,6.0,11.0,57,0.00,,,0.00,,2013-03-05 06:41:00,
2013-03-05 00:52:00,68.0,53.0,29.67,South,190,5.0,12.0,58,0.00,,,0.00,,2013-03-05 06:52:00,
2013-03-05 01:01:00,68.0,53.0,29.67,South,190,1.0,9.0,59,0.00,,,0.00,,2013-03-05 07:01:00,
2013-03-05 01:11:00,68.0,53.0,29.67,South,190,1.0,9.0,59,0.00,,,0.00,,2013-03-05 07:11:00,
2013-03-05 01:22:00,68.0,54.0,29.68,South,190,2.0,8.0,61,0.00,,,0.00,,2013-03-05 07:22:00,
2013-03-05 01:31:00,67.0,53.0,29.68,South,190,3.0,12.0,61,0.00,,,0.00,,2013-03-05 07:31:00,
2013-03-05 01:41:00,67.0,53.0,29.68,South,190,3.0,12.0,61,0.00,,,0.00,,2013-03-05 07:41:00,
2013-03-05 01:51:00,67.0,54.0,29.67,South,190,0.0,0.0,62,0.00,,,0.00,,2013-03-05 07:51:00,
2013-03-05 02:02:00,67.0,54.0,29.68,South,190,0.0,6.0,63,0.00,,,0.00,,2013-03-05 08:02:00,
2013-03-05 02:11:00,67.0,54.0,29.68,South,190,0.0,6.0,63,0.00,,,0.00,,2013-03-05 08:11:00,
2013-03-05 02:21:00,67.0,54.0,29.68,South,190,0.0,0.0,63,0.00,,,0.00,,2013-03-05 08:21:00,
2013-03-05 02:31:00,66.0,54.0,29.69,South,190,0.0,0.0,65,0.00,,,0.00,,2013-03-05 08:31:00,
2013-03-05 02:41:00,66.0,54.0,29.69,South,190,0.0,0.0,65,0.00,,,0.00,,2013-03-05 08:41:00,
2013-03-05 02:52:00,66.0,54.0,29.70,NNW,346,14.0,23.0,65,0.00,,,0.00,,2013-03-05 08:52:00,
2013-03-05 03:01:00,66.0,52.0,29.78,NNE,13,0.0,21.0,61,0.00,,,0.00,,2013-03-05 09:01:00,
2013-03-05 03:11:00,66.0,52.0,29.78,NNE,13,0.0,21.0,61,0.00,,,0.00,,2013-03-05 09:11:00,
2013-03-05 03:21:00,65.0,44.0,29.78,NNE,22,18.0,34.0,47,0.00,,,0.00,,2013-03-05 09:21:00,
2013-03-05 03:31:00,60.0,43.0,29.83,North,360,15.0,25.0,54,0.00,,,0.00,,2013-03-05 09:31:00,
2013-03-05 03:42:00,60.0,43.0,29.83,North,360,15.0,25.0,54,0.00,,,0.00,,2013-03-05 09:42:00,
2013-03-05 03:52:00,58.0,43.0,29.87,NW,326,11.0,21.0,57,0.00,,,0.00,,2013-03-05 09:52:00,
2013-03-05 04:01:00,55.0,41.0,29.91,North,349,11.0,23.0,58,0.00,,,0.00,,2013-03-05 10:01:00,
2013-03-05 04:11:00,55.0,41.0,29.91,North,349,11.0,23.0,58,0.00,,,0.00,,2013-03-05 10:11:00,
2013-03-05 04:21:00,53.0,39.0,29.96,North,5,11.0,27.0,59,0.00,,,0.00,,2013-03-05 10:21:00,
2013-03-05 04:32:00,52.0,39.0,29.96,North,5,11.0,21.0,60,0.00,,,0.00,,2013-03-05 10:32:00,
2013-03-05 04:42:00,52.0,39.0,29.96,North,5,11.0,21.0,60,0.00,,,0.00,,2013-03-05 10:42:00,
2013-03-05 04:52:00,51.0,37.0,29.98,NNW,342,12.0,21.0,59,0.00,,,0.00,,2013-03-05 10:52:00,
2013-03-05 05:01:00,51.0,37.0,30.01,North,5,9.0,21.0,59,0.00,,,0.00,,2013-03-05 11:01:00,
2013-03-05 05:11:00,51.0,37.0,30.01,North,5,9.0,21.0,59,0.00,,,0.00,,2013-03-05 11:11:00,
2013-03-05 05:22:00,51.0,37.0,30.02,NW,319,10.0,21.0,58,0.00,,,0.00,,2013-03-05 11:22:00,
2013-03-05 05:32:00,50.0,36.0,30.03,NNE,14,11.0,22.0,58,0.00,,,0.00,,2013-03-05 11:32:00,
2013-03-05 05:42:00,50.0,36.0,30.03,NNE,14,11.0,22.0,58,0.00,,,0.00,,2013-03-05 11:42:00,
2013-03-05 05:52:00,50.0,35.0,30.05,NE,37,14.0,24.0,57,0.00,,,0.00,,2013-03-05 11:52:00,
2013-03-05 06:02:00,50.0,35.0,30.06,North,355,11.0,20.0,57,0.00,,,0.00,,2013-03-05 12:02:00,
2013-03-05 06:11:00,50.0,35.0,30.06,North,355,11.0,20.0,57,0.00,,,0.00,,2013-03-05 12:11:00,
2013-03-05 06:22:00,50.0,35.0,30.07,NNW,341,7.0,21.0,57,0.00,,,0.00,,2013-03-05 12:22:00,
2013-03-05 06:32:00,49.0,34.0,30.09,NNW,345,8.0,27.0,57,0.00,,,0.00,,2013-03-05 12:32:00,
2013-03-05 06:42:00,49.0,34.0,30.09,NNW,345,8.0,27.0,57,0.00,,,0.00,,2013-03-05 12:42:00,
2013-03-05 06:52:00,49.0,34.0,30.10,North,360,7.0,20.0,56,0.00,,,0.00,,2013-03-05 12:52:00,
2013-03-05 07:02:00,49.0,34.0,30.10,NNW,344,9.0,22.0,56,0.00,,,0.00,,2013-03-05 13:02:00,
2013-03-05 07:11:00,49.0,34.0,30.10,NNW,344,9.0,22.0,56,0.00,,,0.00,,2013-03-05 13:11:00,
2013-03-05 07:21:00,49.0,34.0,30.12,North,355,4.0,17.0,56,0.00,,,0.00,,2013-03-05 13:21:00,
2013-03-05 07:32:00,49.0,34.0,30.13,NW,316,7.0,16.0,56,0.00,,,0.00,,2013-03-05 13:32:00,
2013-03-05 07:42:00,49.0,34.0,30.13,NW,316,7.0,16.0,56,0.00,,,0.00,,2013-03-05 13:42:00,
2013-03-05 07:52:00,49.0,34.0,30.14,North,5,9.0,20.0,55,0.00,,,0.00,,2013-03-05 13:52:00,
2013-03-05 08:02:00,49.0,34.0,30.15,NNE,29,8.0,17.0,56,0.00,,,0.00,,2013-03-05 14:02:00,
2013-03-05 08:11:00,49.0,34.0,30.15,NNE,29,8.0,17.0,56,0.00,,,0.00,,2013-03-05 14:11:00,
2013-03-05 08:21:00,49.0,33.0,30.16,North,355,7.0,16.0,54,0.00,,,0.00,,2013-03-05 14:21:00,
2013-03-05 08:32:00,49.0,32.0,30.17,NNE,13,9.0,24.0,52,0.00,,,0.00,,2013-03-05 14:32:00,
2013-03-05 08:42:00,49.0,32.0,30.17,NNE,13,9.0,24.0,52,0.00,,,0.00,,2013-03-05 14:42:00,
2013-03-05 08:52:00,49.0,32.0,30.19,NNE,17,11.0,24.0,51,0.00,,,0.00,,2013-03-05 14:52:00,
2013-03-05 09:01:00,50.0,32.0,30.20,NE,40,11.0,24.0,50,0.00,,,0.00,,2013-03-05 15:01:00,
2013-03-05 09:11:00,50.0,32.0,30.20,NE,40,11.0,24.0,50,0.00,,,0.00,,2013-03-05 15:11:00,
2013-03-05 09:21:00,50.0,29.0,30.20,North,360,11.0,24.0,45,0.00,,,0.00,,2013-03-05 15:21:00,
2013-03-05 09:32:00,50.0,27.0,30.21,NNE,21,12.0,24.0,41,0.00,,,0.00,,2013-03-05 15:32:00,
2013-03-05 09:42:00,50.0,27.0,30.21,NNE,21,12.0,24.0,41,0.00,,,0.00,,2013-03-05 15:42:00,
2013-03-05 09:52:00,51.0,27.0,30.22,North,355,8.0,20.0,39,0.00,,,0.00,,2013-03-05 15:52:00,
2013-03-05 10:01:00,52.0,25.0,30.22,ENE,65,10.0,24.0,35,0.00,,,0.00,,2013-03-05 16:01:00,
2013-03-05 10:11:00,52.0,25.0,30.22,ENE,65,10.0,24.0,35,0.00,,,0.00,,2013-03-05 16:11:00,
2013-03-05 10:21:00,52.0,25.0,30.23,NE,40,10.0,20.0,34,0.00,,,0.00,,2013-03-05 16:21:00,
2013-03-05 10:32:00,53.0,24.0,30.23,North,355,14.0,27.0,32,0.00,,,0.00,,2013-03-05 16:32:00,
2013-03-05 10:42:00,53.0,24.0,30.23,North,355,14.0,27.0,32,0.00,,,0.00,,2013-03-05 16:42:00,
2013-03-05 10:52:00,53.0,23.0,30.23,North,5,9.0,24.0,31,0.00,,,0.00,,2013-03-05 16:52:00,
2013-03-05 11:01:00,54.0,22.0,30.23,North,10,14.0,24.0,29,0.00,,,0.00,,2013-03-05 17:01:00,
2013-03-05 11:11:00,54.0,22.0,30.23,North,10,14.0,24.0,29,0.00,,,0.00,,2013-03-05 17:11:00,
2013-03-05 11:21:00,55.0,25.0,30.23,NNE,17,6.0,17.0,31,0.00,,,0.00,,2013-03-05 17:21:00,
2013-03-05 11:32:00,56.0,23.0,30.23,North,355,11.0,20.0,28,0.00,,,0.00,,2013-03-05 17:32:00,
2013-03-05 11:42:00,56.0,23.0,30.23,North,355,11.0,20.0,28,0.00,,,0.00,,2013-03-05 17:42:00,
2013-03-05 11:52:00,56.0,23.0,30.24,North,10,12.0,19.0,27,0.00,,,0.00,,2013-03-05 17:52:00,
2013-03-05 12:01:00,58.0,22.0,30.23,NNE,12,13.0,22.0,25,0.00,,,0.00,,2013-03-05 18:01:00,
2013-03-05 12:11:00,58.0,22.0,30.23,NNE,12,13.0,22.0,25,0.00,,,0.00,,2013-03-05 18:11:00,
2013-03-05 12:21:00,58.0,21.0,30.22,NNW,331,12.0,23.0,24,0.00,,,0.00,,2013-03-05 18:21:00,
2013-03-05 12:32:00,59.0,22.0,30.23,NNW,340,11.0,22.0,24,0.00,,,0.00,,2013-03-05 18:32:00,
2013-03-05 12:42:00,59.0,22.0,30.23,NNW,340,11.0,22.0,24,0.00,,,0.00,,2013-03-05 18:42:00,
2013-03-05 12:53:00,60.0,21.0,30.22,North,350,10.0,22.0,22,0.00,,,0.00,,2013-03-05 18:53:00,
2013-03-05 13:01:00,61.0,22.0,30.22,NNW,341,10.0,20.0,22,0.00,,,0.00,,2013-03-05 19:01:00,
2013-03-05 13:11:00,61.0,22.0,30.22,NNW,341,10.0,20.0,22,0.00,,,0.00,,2013-03-05 19:11:00,
2013-03-05 13:21:00,61.0,21.0,30.22,North,360,6.0,21.0,21,0.00,,,0.00,,2013-03-05 19:21:00,
2013-03-05 13:32:00,61.0,21.0,30.22,North,360,6.0,21.0,21,0.00,,,0.00,,2013-03-05 19:32:00,
2013-03-05 13:42:00,61.0,21.0,30.22,North,360,6.0,21.0,21,0.00,,,0.00,,2013-03-05 19:42:00,
2013-03-05 13:52:00,62.0,19.0,30.21,NNW,342,11.0,23.0,19,0.00,,,0.00,,2013-03-05 19:52:00,
2013-03-05 14:01:00,62.0,19.0,30.21,NNW,342,11.0,23.0,19,0.00,,,0.00,,2013-03-05 20:01:00,
2013-03-05 14:11:00,62.0,20.0,30.20,NNW,341,9.0,22.0,20,0.00,,,0.00,,2013-03-05 20:11:00,
2013-03-05 14:21:00,62.0,20.0,30.20,NNW,341,9.0,22.0,20,0.00,,,0.00,,2013-03-05 20:21:00,
2013-03-05 14:32:00,63.0,20.0,30.20,North,355,7.0,17.0,19,0.00,,,0.00,,2013-03-05 20:32:00,
2013-03-05 14:42:00,63.0,20.0,30.20,North,355,7.0,17.0,19,0.00,,,0.00,,2013-03-05 20:42:00,
2013-03-05 14:52:00,63.0,20.0,30.20,NNW,346,9.0,18.0,19,0.00,,,0.00,,2013-03-05 20:52:00,
2013-03-05 15:01:00,66.0,24.0,30.19,NNE,18,0.0,16.0,20,0.00,,,0.00,,2013-03-05 21:01:00,
2013-03-05 15:11:00,66.0,24.0,30.19,NNE,18,0.0,16.0,20,0.00,,,0.00,,2013-03-05 21:11:00,
2013-03-05 15:21:00,64.0,21.0,30.19,NNW,339,7.0,22.0,19,0.00,,,0.00,,2013-03-05 21:21:00,
2013-03-05 15:31:00,65.0,22.0,30.19,NNE,23,7.0,21.0,19,0.00,,,0.00,,2013-03-05 21:31:00,
2013-03-05 15:42:00,65.0,22.0,30.19,NNE,23,7.0,21.0,19,0.00,,,0.00,,2013-03-05 21:42:00,
2013-03-05 15:52:00,65.0,20.0,30.19,NNW,346,7.0,18.0,18,0.00,,,0.00,,2013-03-05 21:52:00,
2013-03-05 16:01:00,65.0,18.0,30.19,NE,55,5.0,20.0,16,0.00,,,0.00,,2013-03-05 22:01:00,
2013-03-05 16:11:00,65.0,18.0,30.19,NE,55,5.0,20.0,16,0.00,,,0.00,,2013-03-05 22:11:00,
2013-03-05 16:21:00,64.0,18.0,30.19,NNE,30,9.0,16.0,17,0.00,,,0.00,,2013-03-05 22:21:00,
2013-03-05 16:32:00,64.0,18.0,30.19,NNW,336,10.0,21.0,17,0.00,,,0.00,,2013-03-05 22:32:00,
2013-03-05 16:41:00,64.0,18.0,30.19,NNW,336,10.0,21.0,17,0.00,,,0.00,,2013-03-05 22:41:00,
2013-03-05 16:52:00,64.0,18.0,30.19,NNE,17,5.0,19.0,17,0.00,,,0.00,,2013-03-05 22:52:00,
2013-03-05 17:01:00,64.0,18.0,30.19,NE,34,4.0,14.0,17,0.00,,,0.00,,2013-03-05 23:01:00,
2013-03-05 17:11:00,64.0,18.0,30.19,NE,34,4.0,14.0,17,0.00,,,0.00,,2013-03-05 23:11:00,
2013-03-05 17:21:00,64.0,18.0,30.19,NE,50,2.0,13.0,17,0.00,,,0.00,,2013-03-05 23:21:00,
2013-03-05 17:32:00,64.0,20.0,30.19,NE,46,2.0,13.0,18,0.00,,,0.00,,2013-03-05 23:32:00,
2013-03-05 17:42:00,64.0,20.0,30.19,NE,46,2.0,13.0,18,0.00,,,0.00,,2013-03-05 23:42:00,
2013-03-05 17:53:00,63.0,19.0,30.20,NNE,30,0.0,14.0,18,0.00,,,0.00,,2013-03-05 23:53:00,
2013-03-05 18:01:00,62.0,18.0,30.21,North,9,5.0,16.0,18,0.00,,,0.00,,2013-03-06 00:01:00,
2013-03-05 18:11:00,62.0,18.0,30.21,North,9,5.0,16.0,18,0.00,,,0.00,,2013-03-06 00:11:00,
2013-03-05 18:21:00,61.0,17.0,30.21,NNE,14,1.0,11.0,18,0.00,,,0.00,,2013-03-06 00:21:00,
2013-03-05 18:32:00,60.0,18.0,30.22,NNE,14,0.0,8.0,19,0.00,,,0.00,,2013-03-06 00:32:00,
2013-03-05 18:41:00,60.0,18.0,30.22,NNE,14,0.0,8.0,19,0.00,,,0.00,,2013-03-06 00:41:00,
2013-03-05 18:52:00,59.0,18.0,30.22,NNE,14,1.0,4.0,20,0.00,,,0.00,,2013-03-06 00:52:00,
2013-03-05 19:01:00,58.0,18.0,30.23,NNE,14,1.0,5.0,21,0.00,,,0.00,,2013-03-06 01:01:00,
2013-03-05 19:11:00,58.0,18.0,30.23,NNE,14,1.0,5.0,21,0.00,,,0.00,,2013-03-06 01:11:00,
2013-03-05 19:21:00,56.0,17.0,30.24,NNE,14,0.0,3.0,21,0.00,,,0.00,,2013-03-06 01:21:00,
2013-03-05 19:32:00,55.0,17.0,30.24,NNE,14,1.0,3.0,22,0.00,,,0.00,,2013-03-06 01:32:00,
2013-03-05 19:42:00,55.0,17.0,30.24,NNE,14,1.0,3.0,22,0.00,,,0.00,,2013-03-06 01:42:00,
2013-03-05 19:52:00,54.0,16.0,30.24,NNE,14,2.0,4.0,22,0.00,,,0.00,,2013-03-06 01:52:00,
2013-03-05 20:01:00,53.0,16.0,30.24,NNE,14,0.0,3.0,23,0.00,,,0.00,,2013-03-06 02:01:00,
2013-03-05 20:11:00,53.0,16.0,30.24,NNE,14,0.0,3.0,23,0.00,,,0.00,,2013-03-06 02:11:00,
2013-03-05 20:22:00,52.0,17.0,30.26,NNE,14,0.0,0.0,25,0.00,,,0.00,,2013-03-06 02:22:00,
2013-03-05 20:32:00,51.0,16.0,30.25,NNE,14,0.0,5.0,24,0.00,,,0.00,,2013-03-06 02:32:00,
2013-03-05 20:42:00,51.0,16.0,30.25,NNE,14,0.0,5.0,24,0.00,,,0.00,,2013-03-06 02:42:00,
2013-03-05 20:52:00,51.0,16.0,30.26,NNE,14,0.0,0.0,25,0.00,,,0.00,,2013-03-06 02:52:00,
2013-03-05 21:01:00,51.0,17.0,30.26,NNE,14,0.0,0.0,26,0.00,,,0.00,,2013-03-06 03:01:00,
2013-03-05 21:11:00,51.0,17.0,30.26,NNE,14,0.0,0.0,26,0.00,,,0.00,,2013-03-06 03:11:00,
2013-03-05 21:22:00,49.0,17.0,30.26,NNE,14,0.0,0.0,28,0.00,,,0.00,,2013-03-06 03:22:00,
2013-03-05 21:32:00,48.0,18.0,30.27,NNE,14,0.0,3.0,30,0.00,,,0.00,,2013-03-06 03:32:00,
2013-03-05 21:42:00,48.0,18.0,30.27,NNE,14,0.0,3.0,30,0.00,,,0.00,,2013-03-06 03:42:00,
2013-03-05 21:52:00,47.0,18.0,30.28,NNE,14,1.0,5.0,31,0.00,,,0.00,,2013-03-06 03:52:00,
2013-03-05 22:02:00,47.0,18.0,30.29,NNE,14,0.0,4.0,31,0.00,,,0.00,,2013-03-06 04:02:00,
2013-03-05 22:11:00,47.0,18.0,30.29,NNE,14,0.0,4.0,31,0.00,,,0.00,,2013-03-06 04:11:00,
2013-03-05 22:21:00,46.0,17.0,30.29,NNE,14,0.0,0.0,31,0.00,,,0.00,,2013-03-06 04:21:00,
2013-03-05 22:32:00,46.0,17.0,30.29,NNE,14,0.0,0.0,31,0.00,,,0.00,,2013-03-06 04:32:00,
2013-03-05 22:41:00,46.0,17.0,30.29,NNE,14,0.0,0.0,31,0.00,,,0.00,,2013-03-06 04:41:00,
2013-03-05 22:52:00,46.0,17.0,30.30,NNE,14,0.0,0.0,31,0.00,,,0.00,,2013-03-06 04:52:00,
2013-03-05 23:01:00,45.0,17.0,30.30,NNE,14,0.0,0.0,32,0.00,,,0.00,,2013-03-06 05:01:00,
2013-03-05 23:11:00,45.0,18.0,30.31,NNE,14,0.0,0.0,34,0.00,,,0.00,,2013-03-06 05:11:00,
2013-03-05 23:22:00,45.0,18.0,30.31,NNE,14,0.0,0.0,34,0.00,,,0.00,,2013-03-06 05:22:00,
2013-03-05 23:32:00,45.0,18.0,30.31,NNE,14,0.0,5.0,34,0.00,,,0.00,,2013-03-06 05:32:00,
2013-03-05 23:42:00,45.0,18.0,30.31,NNE,14,0.0,5.0,34,0.00,,,0.00,,2013-03-06 05:42:00,
2013-03-05 23:52:00,43.0,18.0,30.31,NNE,14,0.0,0.0,36,0.00,,,0.00,,2013-03-06 05:52:00,